Terminal Aerodrome Forecast
Issued by NWS Topeka, KS

Home | Current Version | Previous Version | Graphics & Text | Print | Product List | Glossary On
Versions: 1 2 3 4 5 6 7 8 9 10 11 12 13 14
000
FTUS43 KTOP 211123
TAFTOP
TAF
KTOP 211123Z 2112/2212 32005KT P6SM OVC200 WS013/01045KT
     FM211500 34014G26KT P6SM SCT140
     FM212300 35012KT P6SM SKC
     FM220200 35005KT P6SM SKC=

USA.gov is the U.S. government's official web portal to all federal, state and local government web resources and services.